Terminal Aerodrome Forecast
Issued by NWS Sioux Falls, SD

Home | Current Version | Previous Version | Graphics & Text | Print | Product List | Glossary On
Versions: 1 2 3 4 5 6 7 8 9 10 11 12 13 14 15 16 17 18
000
FTUS43 KFSD 292330
TAFHON
TAF
KHON 292330Z 3000/3024 16005KT P6SM SCT090 BKN150
     FM300900 29009KT P6SM BKN050
     FM301400 33014G22KT P6SM BKN025
     FM301600 34018G25KT P6SM OVC025
     FM302200 34015KT P6SM SCT030=

USA.gov is the U.S. government's official web portal to all federal, state and local government web resources and services.